Aviation Digital Data Service (ADDS)

Output produced by METARs form (1319 UTC 21 April 2021)
found at http://www.aviationweather.gov/metar/data/
 
ESTA 211250Z 25018KT 9999 BKN033 BKN049 09/01 Q1008
TAF ESTA 211216Z 2113/2118 28015KT 9999 SCT040 
     TEMPO 2113/2118 29018G28KT SCT030TCU